Time;durP1;ratioP1;P1;durP2;ratioP2;P2;SDS_P1;SDS_P2;PMS_P1;PMS_P2;Temp;Humidity;BMP_temperature;BMP_pressure;BME280_temperature;BME280_humidity;BME280_pressure;Samples;Min_cycle;Max_cycle;Signal;HPM_P1;HPM_P2
2020/12/25 00:02:08;;;;;;;5.03;1.73;;;7.00;99.90;;;;;;5031908;28;20539;-68
2020/12/25 00:04:35;;;;;;;4.95;2.17;;;6.90;99.90;;;;;;5040600;28;20056;-68
2020/12/25 00:07:05;;;;;;;8.27;2.22;;;7.00;99.90;;;;;;5046700;28;20041;-68
2020/12/25 00:09:32;;;;;;;5.03;2.25;;;7.00;99.90;;;;;;5040786;28;20400;-68
2020/12/25 00:11:59;;;;;;;8.85;2.22;;;6.90;99.90;;;;;;5024381;28;20053;-68
2020/12/25 00:14:25;;;;;;;4.57;1.65;;;7.00;99.90;;;;;;5047174;28;20033;-68
2020/12/25 00:16:52;;;;;;;4.85;2.20;;;7.00;99.90;;;;;;5042896;28;20041;-68
2020/12/25 00:19:18;;;;;;;4.25;1.67;;;7.00;99.90;;;;;;5030632;28;20041;-68
2020/12/25 00:21:45;;;;;;;6.28;2.08;;;6.90;99.90;;;;;;5041646;28;20442;-68
2020/12/25 00:24:12;;;;;;;5.20;2.47;;;6.90;99.90;;;;;;5047257;28;20429;-68
2020/12/25 00:26:38;;;;;;;6.45;1.85;;;6.90;99.90;;;;;;5044784;28;20045;-68
2020/12/25 00:29:05;;;;;;;4.35;1.88;;;6.90;99.90;;;;;;5056879;28;20077;-68
2020/12/25 00:31:36;;;;;;;5.03;1.77;;;6.90;99.90;;;;;;5048906;28;20037;-68
2020/12/25 00:34:05;;;;;;;4.85;2.00;;;6.90;99.90;;;;;;5024906;28;20045;-68
2020/12/25 00:36:34;;;;;;;4.30;1.83;;;6.90;99.90;;;;;;5031904;28;20467;-68
2020/12/25 00:39:03;;;;;;;3.25;1.63;;;6.90;99.90;;;;;;5045563;28;20045;-68
2020/12/25 00:41:30;;;;;;;4.28;1.60;;;6.90;99.90;;;;;;5046863;28;20147;-68
2020/12/25 00:43:57;;;;;;;6.32;2.20;;;6.90;99.90;;;;;;5043331;28;20041;-68
2020/12/25 00:46:24;;;;;;;6.00;2.35;;;6.90;99.90;;;;;;5033830;28;20049;-68
2020/12/25 00:48:51;;;;;;;6.47;2.78;;;6.90;99.90;;;;;;5034555;28;20061;-68
2020/12/25 00:51:22;;;;;;;5.38;2.55;;;6.90;99.90;;;;;;5046506;28;20048;-68
2020/12/25 00:53:50;;;;;;;6.53;2.55;;;6.90;99.90;;;;;;5036266;28;20404;-68
2020/12/25 00:56:19;;;;;;;6.85;2.35;;;6.90;99.90;;;;;;5034280;28;20049;-68
2020/12/25 00:58:49;;;;;;;4.70;1.95;;;6.90;99.90;;;;;;5031907;28;20128;-68
2020/12/25 01:01:19;;;;;;;3.83;1.75;;;6.90;99.90;;;;;;5024132;28;20581;-68
2020/12/25 01:03:46;;;;;;;4.68;1.85;;;6.90;99.90;;;;;;5049635;28;20052;-68
2020/12/25 01:06:13;;;;;;;4.57;1.50;;;6.80;99.90;;;;;;5043240;28;20116;-68
2020/12/25 01:08:41;;;;;;;4.30;1.50;;;6.80;99.90;;;;;;5026426;28;20048;-68
2020/12/25 01:11:08;;;;;;;3.70;1.75;;;6.80;99.90;;;;;;5049471;28;20059;-68
2020/12/25 01:13:36;;;;;;;4.68;1.45;;;6.70;99.90;;;;;;5023112;28;20084;-68
2020/12/25 01:16:09;;;;;;;3.60;1.42;;;6.80;99.90;;;;;;5049305;28;20535;-69
2020/12/25 01:18:36;;;;;;;4.18;1.55;;;6.80;99.90;;;;;;5044981;28;20045;-68
2020/12/25 01:21:03;;;;;;;5.43;1.50;;;6.70;99.90;;;;;;5043842;28;20053;-68
2020/12/25 01:23:30;;;;;;;3.13;1.20;;;6.70;99.90;;;;;;5043715;28;20068;-68
2020/12/25 01:25:56;;;;;;;6.47;1.67;;;6.70;99.90;;;;;;5043588;28;20037;-68
2020/12/25 01:28:23;;;;;;;4.60;1.58;;;6.70;99.90;;;;;;5031206;28;20045;-68
2020/12/25 01:30:49;;;;;;;5.15;1.55;;;6.70;99.90;;;;;;5037694;28;20045;-68
2020/12/25 01:33:16;;;;;;;4.63;1.33;;;6.70;99.90;;;;;;5041538;28;20047;-68
2020/12/25 01:35:42;;;;;;;4.13;1.45;;;6.60;99.90;;;;;;5024627;28;20050;-68
2020/12/25 01:38:10;;;;;;;6.00;1.92;;;6.60;99.90;;;;;;5042768;28;20519;-68
2020/12/25 01:40:36;;;;;;;8.05;1.85;;;6.60;99.90;;;;;;5049951;28;20045;-68
2020/12/25 01:43:03;;;;;;;4.07;2.00;;;6.60;99.90;;;;;;5046864;28;20052;-68
2020/12/25 01:45:29;;;;;;;5.35;1.98;;;6.50;99.90;;;;;;5046089;28;20403;-68
2020/12/25 01:47:57;;;;;;;7.03;2.00;;;6.50;99.90;;;;;;5041537;28;20092;-68
2020/12/25 01:50:26;;;;;;;4.88;1.50;;;6.50;99.90;;;;;;5038894;28;20069;-68
2020/12/25 01:52:54;;;;;;;4.25;1.80;;;6.50;99.90;;;;;;5037066;28;20053;-68
2020/12/25 01:55:25;;;;;;;5.63;2.25;;;6.50;99.90;;;;;;5048301;28;20049;-68
2020/12/25 01:57:56;;;;;;;3.85;1.63;;;6.50;99.90;;;;;;5042698;28;20041;-68
2020/12/25 02:00:27;;;;;;;3.65;1.27;;;6.50;99.90;;;;;;5037975;28;20037;-68
2020/12/25 02:02:53;;;;;;;4.82;1.90;;;6.50;99.90;;;;;;5045448;28;20500;-68
2020/12/25 02:05:21;;;;;;;3.92;1.80;;;6.50;99.90;;;;;;5046263;28;20115;-68
2020/12/25 02:07:48;;;;;;;4.53;1.48;;;6.50;99.90;;;;;;5030564;28;20049;-68
2020/12/25 02:10:14;;;;;;;4.43;1.60;;;6.50;99.90;;;;;;5049739;28;20045;-68
2020/12/25 02:12:41;;;;;;;4.65;1.77;;;6.50;99.90;;;;;;5045749;28;20223;-68
2020/12/25 02:15:09;;;;;;;5.45;2.42;;;6.50;99.90;;;;;;5045566;28;20033;-68
2020/12/25 02:17:42;;;;;;;4.95;1.38;;;6.60;99.90;;;;;;5047184;28;20045;-68
2020/12/25 02:20:10;;;;;;;4.97;1.77;;;6.50;99.90;;;;;;5045255;28;20409;-68
2020/12/25 02:22:37;;;;;;;4.97;1.77;;;6.50;99.90;;;;;;5036661;28;20056;-68
2020/12/25 02:25:04;;;;;;;4.82;2.15;;;6.50;99.90;;;;;;5029880;28;20056;-68
2020/12/25 02:27:30;;;;;;;3.28;1.95;;;6.50;99.90;;;;;;5046147;28;20468;-68
2020/12/25 02:29:57;;;;;;;4.28;2.00;;;6.50;99.90;;;;;;5061621;28;20396;-68
2020/12/25 02:32:23;;;;;;;5.80;2.00;;;6.60;99.90;;;;;;5049033;28;20468;-68
2020/12/25 02:35:04;;;;;;;3.55;1.90;;;6.50;99.90;;;;;;5047530;28;20033;-68
2020/12/25 02:37:31;;;;;;;4.95;1.67;;;6.50;99.90;;;;;;5041947;28;20041;-68
2020/12/25 02:39:57;;;;;;;4.28;2.08;;;6.50;99.90;;;;;;5037297;28;20400;-68
2020/12/25 02:42:24;;;;;;;4.63;1.60;;;6.50;99.90;;;;;;5045256;28;20120;-68
2020/12/25 02:44:50;;;;;;;4.28;1.58;;;6.50;99.90;;;;;;5042380;28;20126;-68
2020/12/25 02:47:17;;;;;;;4.82;1.92;;;6.50;99.90;;;;;;5032249;28;20049;-68
2020/12/25 02:49:55;;;;;;;4.85;1.65;;;6.40;99.90;;;;;;5045777;28;20037;-68
2020/12/25 02:52:22;;;;;;;6.60;1.80;;;6.40;99.90;;;;;;5036259;28;20414;-68
2020/12/25 02:54:48;;;;;;;4.72;1.88;;;6.40;99.90;;;;;;5049163;28;20535;-68
2020/12/25 02:57:14;;;;;;;5.20;1.70;;;6.40;99.90;;;;;;5052889;28;20045;-68
2020/12/25 02:59:41;;;;;;;6.68;2.97;;;6.40;99.90;;;;;;5031243;28;20836;-68
2020/12/25 03:02:07;;;;;;;5.93;2.08;;;6.40;99.90;;;;;;5048032;28;20095;-67
2020/12/25 03:04:34;;;;;;;4.85;1.90;;;6.40;99.90;;;;;;5031455;28;20053;-68
2020/12/25 03:07:00;;;;;;;5.78;2.50;;;6.30;99.90;;;;;;5041231;28;20088;-68
2020/12/25 03:09:27;;;;;;;6.35;2.10;;;6.30;99.90;;;;;;5033915;28;20056;-68
2020/12/25 03:11:53;;;;;;;4.47;1.92;;;6.30;99.90;;;;;;5048023;28;20443;-68
2020/12/25 03:14:20;;;;;;;4.38;1.83;;;6.30;99.90;;;;;;5046974;28;20517;-68
2020/12/25 03:16:46;;;;;;;6.35;2.10;;;6.30;99.90;;;;;;5048040;28;20041;-68
2020/12/25 03:19:13;;;;;;;8.35;2.83;;;6.30;99.90;;;;;;5051072;28;20033;-68
2020/12/25 03:21:39;;;;;;;5.88;2.60;;;6.20;99.90;;;;;;5052179;28;20053;-68
2020/12/25 03:24:06;;;;;;;6.53;2.40;;;6.30;99.90;;;;;;5050442;28;20048;-68
2020/12/25 03:26:32;;;;;;;8.63;3.03;;;6.20;99.90;;;;;;5035673;28;20384;-68
2020/12/25 03:28:59;;;;;;;4.53;1.95;;;6.20;99.90;;;;;;5050859;28;20443;-68
2020/12/25 03:31:25;;;;;;;5.10;1.88;;;6.20;99.90;;;;;;5049716;28;20053;-68
2020/12/25 03:33:52;;;;;;;6.38;2.15;;;6.20;99.90;;;;;;5040324;28;20077;-67
2020/12/25 03:36:18;;;;;;;5.15;2.35;;;6.20;99.90;;;;;;5046941;28;20048;-68
2020/12/25 03:38:45;;;;;;;6.68;2.60;;;6.20;99.90;;;;;;5041077;28;20045;-68
2020/12/25 03:41:11;;;;;;;4.40;1.92;;;6.20;99.90;;;;;;5050643;28;20056;-69
2020/12/25 03:43:38;;;;;;;4.82;2.13;;;6.20;99.90;;;;;;5042211;28;20077;-68
2020/12/25 03:46:04;;;;;;;6.40;2.40;;;6.20;99.90;;;;;;5042800;28;20099;-68
2020/12/25 03:48:31;;;;;;;3.78;2.20;;;6.20;99.90;;;;;;5041365;28;20056;-68
2020/12/25 03:51:00;;;;;;;7.53;2.38;;;6.10;99.90;;;;;;5022216;28;20579;-68
2020/12/25 03:53:26;;;;;;;6.30;2.20;;;6.10;99.90;;;;;;5029202;28;20481;-68
2020/12/25 03:55:53;;;;;;;5.47;2.38;;;6.10;99.90;;;;;;5050165;28;20049;-68
2020/12/25 03:58:19;;;;;;;7.15;2.75;;;6.10;99.90;;;;;;5047492;28;20063;-68
2020/12/25 04:00:46;;;;;;;6.00;2.42;;;6.10;99.90;;;;;;5047969;28;20048;-68
2020/12/25 04:03:13;;;;;;;7.63;3.03;;;6.10;99.90;;;;;;5047022;28;20525;-68
2020/12/25 04:05:40;;;;;;;6.85;3.13;;;6.10;99.90;;;;;;5046812;28;20407;-68
2020/12/25 04:08:07;;;;;;;11.55;3.72;;;6.10;99.90;;;;;;5049728;28;20041;-68
2020/12/25 04:10:34;;;;;;;9.05;3.35;;;6.10;99.90;;;;;;5032781;28;20066;-68
2020/12/25 04:13:00;;;;;;;8.25;3.22;;;6.10;99.90;;;;;;5058922;28;20044;-68
2020/12/25 04:15:27;;;;;;;6.63;2.83;;;6.10;99.90;;;;;;5046716;28;20118;-68
2020/12/25 04:17:54;;;;;;;6.35;2.65;;;6.10;99.90;;;;;;5049680;28;20052;-68
2020/12/25 04:20:20;;;;;;;6.32;2.58;;;6.10;99.90;;;;;;5043440;28;20037;-68
2020/12/25 04:22:47;;;;;;;6.60;2.72;;;6.10;99.90;;;;;;5038328;28;20057;-68
2020/12/25 04:25:14;;;;;;;5.97;2.45;;;6.10;99.90;;;;;;5033053;28;20053;-68
2020/12/25 04:27:40;;;;;;;5.45;2.28;;;6.10;99.90;;;;;;5044414;28;20045;-68
2020/12/25 04:30:07;;;;;;;6.97;3.22;;;6.10;99.90;;;;;;5030094;28;20037;-68
2020/12/25 04:32:33;;;;;;;5.93;2.33;;;6.00;99.90;;;;;;5046754;28;20388;-68
2020/12/25 04:35:00;;;;;;;5.45;2.63;;;6.10;99.90;;;;;;5049586;28;20045;-68
2020/12/25 04:37:27;;;;;;;5.60;2.70;;;6.10;99.90;;;;;;5043362;28;20041;-68
2020/12/25 04:39:53;;;;;;;6.25;2.60;;;6.10;99.90;;;;;;5045018;28;20496;-68
2020/12/25 04:42:20;;;;;;;7.85;2.55;;;6.00;99.90;;;;;;5044518;28;20064;-68
2020/12/25 04:44:48;;;;;;;7.28;2.85;;;6.10;99.90;;;;;;5034522;28;20618;-68
2020/12/25 04:47:14;;;;;;;6.47;3.05;;;6.00;99.90;;;;;;5046306;28;20512;-68
2020/12/25 04:49:41;;;;;;;8.50;2.33;;;6.00;99.90;;;;;;5025696;28;20064;-68
2020/12/25 04:52:07;;;;;;;5.50;2.15;;;6.00;99.90;;;;;;5039516;28;20056;-68
2020/12/25 04:54:35;;;;;;;7.82;2.83;;;6.00;99.90;;;;;;5061494;28;20059;-68
2020/12/25 04:57:02;;;;;;;8.73;2.97;;;6.00;99.90;;;;;;5043322;28;20049;-68
2020/12/25 04:59:29;;;;;;;6.45;2.38;;;6.00;99.90;;;;;;5048871;28;20037;-68
2020/12/25 05:01:59;;;;;;;5.28;2.35;;;6.00;99.90;;;;;;5048626;28;20037;-68
2020/12/25 05:04:26;;;;;;;8.02;2.42;;;6.00;99.90;;;;;;5027002;28;20128;-68
2020/12/25 05:06:54;;;;;;;7.53;3.22;;;6.10;99.90;;;;;;5043849;28;20289;-68
2020/12/25 05:09:22;;;;;;;9.35;3.13;;;6.10;99.90;;;;;;5039533;28;20045;-68
2020/12/25 05:11:56;;;;;;;6.72;2.63;;;6.10;99.90;;;;;;5040024;28;20041;-68
2020/12/25 05:14:28;;;;;;;6.68;2.50;;;6.10;99.90;;;;;;5034977;28;20128;-68
2020/12/25 05:16:57;;;;;;;7.28;3.13;;;6.10;99.90;;;;;;5036750;28;20045;-68
2020/12/25 05:19:29;;;;;;;6.43;2.65;;;6.10;99.90;;;;;;5049301;28;20048;-68
2020/12/25 05:21:57;;;;;;;7.28;2.88;;;6.10;99.90;;;;;;5046698;28;20041;-68
2020/12/25 05:24:25;;;;;;;7.30;3.00;;;6.10;99.90;;;;;;5044010;28;20400;-67
2020/12/25 05:26:56;;;;;;;5.35;2.38;;;6.10;99.90;;;;;;5030813;28;20503;-68
2020/12/25 05:29:28;;;;;;;8.43;3.05;;;6.10;99.90;;;;;;5044096;28;20056;-68
2020/12/25 05:31:55;;;;;;;8.18;2.60;;;6.10;99.90;;;;;;5049468;28;20068;-68
2020/12/25 05:34:22;;;;;;;7.15;2.83;;;6.10;99.90;;;;;;5046962;28;20052;-68
2020/12/25 05:37:05;;;;;;;7.40;3.22;;;6.10;99.90;;;;;;5046069;28;20120;-68
2020/12/25 05:39:34;;;;;;;9.15;3.03;;;6.00;99.90;;;;;;5029792;28;20037;-68
2020/12/25 05:42:03;;;;;;;6.68;2.60;;;6.00;99.90;;;;;;5049360;28;20041;-68
2020/12/25 05:44:43;;;;;;;7.45;3.13;;;6.10;99.90;;;;;;5045793;28;20041;-68
2020/12/25 05:47:16;;;;;;;8.45;2.97;;;6.00;99.90;;;;;;5035868;28;20502;-68
2020/12/25 05:49:44;;;;;;;7.87;3.07;;;6.10;99.90;;;;;;5047310;28;20045;-68
2020/12/25 05:52:14;;;;;;;7.53;3.05;;;6.10;99.90;;;;;;5047555;28;20285;-68
2020/12/25 05:54:42;;;;;;;7.55;2.65;;;6.00;99.90;;;;;;5049733;28;20072;-68
2020/12/25 05:57:13;;;;;;;5.43;2.83;;;6.00;99.90;;;;;;5036145;28;20043;-68
2020/12/25 05:59:44;;;;;;;7.93;3.58;;;6.00;99.90;;;;;;5042842;28;20047;-68
2020/12/25 06:02:12;;;;;;;7.85;3.75;;;6.00;99.90;;;;;;5030308;28;20392;-68
2020/12/25 06:04:40;;;;;;;8.52;3.53;;;6.00;99.90;;;;;;5039807;28;20051;-68
2020/12/25 06:07:29;;;;;;;5.97;3.10;;;6.00;99.90;;;;;;5029604;28;20136;-68
2020/12/25 06:09:59;;;;;;;11.00;3.58;;;6.00;99.90;;;;;;5046781;28;20041;-68
2020/12/25 06:12:53;;;;;;;6.50;3.42;;;6.00;99.90;;;;;;5050291;28;20040;-68
2020/12/25 06:15:23;;;;;;;7.10;3.22;;;6.00;99.90;;;;;;5037096;28;20096;-67
2020/12/25 06:18:14;;;;;;;10.93;4.38;;;6.00;99.90;;;;;;5043499;28;20041;-68
2020/12/25 06:21:10;;;;;;;9.18;4.28;;;6.10;99.90;;;;;;5058966;28;20056;-68
2020/12/25 06:23:41;;;;;;;9.23;3.75;;;6.10;99.90;;;;;;5040512;28;20057;-68
2020/12/25 06:26:08;;;;;;;7.28;4.00;;;6.10;99.90;;;;;;5046825;28;20536;-68
2020/12/25 06:28:41;;;;;;;9.05;4.45;;;6.10;99.90;;;;;;5050398;28;20118;-68
2020/12/25 06:31:27;;;;;;;7.82;3.97;;;6.10;99.90;;;;;;5053843;28;20605;-67
2020/12/25 06:33:54;;;;;;;7.47;3.58;;;6.10;99.90;;;;;;5051507;28;20045;-68
2020/12/25 06:36:29;;;;;;;7.80;3.90;;;6.10;99.90;;;;;;5062320;28;20029;-68
2020/12/25 06:39:02;;;;;;;8.15;3.85;;;6.00;99.90;;;;;;5056660;28;20045;-68
2020/12/25 06:41:28;;;;;;;;;;;6.00;99.90;;;;;;5035446;28;20115;-68
2020/12/25 06:43:56;;;;;;;8.70;4.35;;;5.90;99.90;;;;;;5046448;28;19929;-68
2020/12/25 06:46:29;;;;;;;38.63;12.90;;;5.90;99.90;;;;;;5052157;28;20052;-68
2020/12/25 06:49:06;;;;;;;85.70;28.27;;;5.90;99.90;;;;;;5055159;28;20056;-68
2020/12/25 06:51:43;;;;;;;70.00;24.45;;;5.80;99.90;;;;;;5044514;28;20077;-67
2020/12/25 06:54:22;;;;;;;22.98;9.18;;;5.80;99.90;;;;;;5039816;28;20049;-68
2020/12/25 06:56:52;;;;;;;11.88;6.18;;;5.80;99.90;;;;;;5053505;28;20496;-68
2020/12/25 06:59:21;;;;;;;11.00;5.35;;;5.70;99.90;;;;;;5048636;28;20373;-68
2020/12/25 07:01:54;;;;;;;8.68;4.07;;;5.70;99.90;;;;;;5052098;28;20061;-68
2020/12/25 07:04:24;;;;;;;147.52;47.83;;;5.70;99.90;;;;;;5046303;28;20045;-67
2020/12/25 07:06:56;;;;;;;28.80;14.00;;;5.70;99.90;;;;;;5041883;28;20092;-66
2020/12/25 07:09:35;;;;;;;18.73;10.80;;;5.70;99.90;;;;;;5049309;28;20056;-66
2020/12/25 07:12:05;;;;;;;11.05;5.60;;;5.70;99.90;;;;;;5036880;28;20060;-66
2020/12/25 07:14:32;;;;;;;10.43;5.68;;;5.70;99.90;;;;;;5046740;28;20049;-66
2020/12/25 07:16:58;;;;;;;11.27;5.25;;;5.70;99.90;;;;;;5053017;28;20037;-66
2020/12/25 07:19:25;;;;;;;10.95;4.30;;;5.70;99.90;;;;;;5056398;28;20419;-66
2020/12/25 07:21:52;;;;;;;11.13;5.22;;;5.70;99.90;;;;;;5036247;28;20037;-66
2020/12/25 07:24:19;;;;;;;9.70;4.38;;;5.70;99.90;;;;;;5044736;28;20045;-66
2020/12/25 07:26:47;;;;;;;9.98;4.00;;;5.70;99.90;;;;;;5048548;28;20099;-66
2020/12/25 07:29:15;;;;;;;8.27;4.35;;;5.70;99.90;;;;;;5051078;28;20056;-66
2020/12/25 07:31:49;;;;;;;13.43;5.25;;;5.70;99.90;;;;;;5037438;28;20175;-65
2020/12/25 07:34:18;;;;;;;14.90;6.38;;;5.70;99.90;;;;;;5051413;28;20099;-65
2020/12/25 07:36:46;;;;;;;14.10;7.35;;;5.80;99.90;;;;;;5034041;28;20127;-65
2020/12/25 07:39:12;;;;;;;17.60;8.20;;;5.80;99.90;;;;;;5047795;28;20064;-66
2020/12/25 07:41:39;;;;;;;38.50;17.83;;;5.80;99.90;;;;;;5042861;28;20095;-66
2020/12/25 07:44:07;;;;;;;12.15;7.15;;;5.80;99.90;;;;;;5041345;28;20061;-65
2020/12/25 07:46:34;;;;;;;12.00;6.00;;;5.80;99.90;;;;;;5039098;28;20051;-66
2020/12/25 07:49:01;;;;;;;10.70;5.97;;;5.80;99.90;;;;;;5043865;28;20033;-66
2020/12/25 07:51:28;;;;;;;12.45;6.15;;;5.80;99.90;;;;;;5047694;28;20044;-66
2020/12/25 07:53:56;;;;;;;14.38;6.55;;;5.90;99.90;;;;;;5045909;28;20043;-66
2020/12/25 07:56:26;;;;;;;15.88;7.90;;;5.90;99.90;;;;;;5045847;28;20032;-66
2020/12/25 07:58:53;;;;;;;13.55;7.80;;;5.90;99.90;;;;;;5042390;28;20049;-65
2020/12/25 08:01:26;;;;;;;31.27;16.55;;;5.90;99.90;;;;;;5028665;28;20091;-66
2020/12/25 08:03:56;;;;;;;39.08;16.63;;;5.90;99.90;;;;;;5042864;28;20057;-66
2020/12/25 08:06:24;;;;;;;28.77;13.90;;;5.90;99.90;;;;;;5043807;28;20046;-66
2020/12/25 08:08:58;;;;;;;26.30;12.88;;;6.00;99.90;;;;;;5045000;28;20111;-66
2020/12/25 08:11:26;;;;;;;14.18;7.75;;;6.00;99.90;;;;;;5034959;28;20512;-66
2020/12/25 08:13:56;;;;;;;13.35;7.97;;;6.00;99.90;;;;;;5033625;28;20042;-66
2020/12/25 08:16:23;;;;;;;14.43;7.82;;;6.00;99.90;;;;;;5047651;28;20041;-66
2020/12/25 08:18:52;;;;;;;12.60;7.30;;;6.00;99.90;;;;;;5044973;28;20042;-66
2020/12/25 08:21:19;;;;;;;15.10;7.03;;;6.00;99.90;;;;;;5040478;28;20033;-66
2020/12/25 08:23:46;;;;;;;23.73;8.15;;;6.00;99.90;;;;;;5040050;28;20053;-66
2020/12/25 08:26:13;;;;;;;18.80;7.60;;;6.00;99.90;;;;;;5033449;28;20109;-66
2020/12/25 08:28:43;;;;;;;19.55;8.48;;;6.10;99.90;;;;;;5040779;28;20072;-67
2020/12/25 08:31:14;;;;;;;29.23;12.65;;;6.00;99.90;;;;;;5048285;28;20045;-66
2020/12/25 08:33:41;;;;;;;21.15;10.82;;;6.00;99.90;;;;;;5049987;28;20049;-66
2020/12/25 08:36:10;;;;;;;15.88;7.63;;;6.00;99.90;;;;;;5048803;28;20044;-66
2020/12/25 08:38:41;;;;;;;15.50;6.95;;;6.10;99.90;;;;;;5043646;28;20055;-66
2020/12/25 08:41:08;;;;;;;22.70;10.02;;;6.00;99.90;;;;;;5041526;28;20049;-66
2020/12/25 08:43:34;;;;;;;17.42;7.85;;;6.10;99.90;;;;;;5050709;28;20132;-66
2020/12/25 08:46:08;;;;;;;29.60;12.77;;;6.10;99.90;;;;;;5052427;28;20064;-66
2020/12/25 08:48:48;;;;;;;29.30;13.25;;;6.10;99.90;;;;;;5062752;28;20055;-66
2020/12/25 08:51:16;;;;;;;15.55;8.35;;;6.20;99.90;;;;;;5039203;28;20049;-66
2020/12/25 08:54:09;;;;;;;10.30;5.97;;;6.20;99.90;;;;;;5031767;28;20055;-65
2020/12/25 08:56:37;;;;;;;13.52;5.82;;;6.10;99.90;;;;;;5036242;28;20056;-65
2020/12/25 08:59:06;;;;;;;9.73;4.78;;;6.20;99.90;;;;;;5045771;28;20042;-66
2020/12/25 09:01:41;;;;;;;6.68;4.50;;;6.20;99.90;;;;;;5034743;28;20091;-66
2020/12/25 09:04:16;;;;;;;10.77;4.63;;;6.20;99.90;;;;;;5047639;28;20130;-66
2020/12/25 09:06:43;;;;;;;7.78;3.72;;;6.20;99.90;;;;;;5046489;28;20044;-65
2020/12/25 09:09:26;;;;;;;10.73;4.63;;;6.20;99.90;;;;;;5034282;28;20069;-65
2020/12/25 09:11:53;;;;;;;6.32;2.83;;;6.30;99.90;;;;;;5030000;28;20057;-66
2020/12/25 09:14:20;;;;;;;9.23;3.92;;;6.20;99.90;;;;;;5029397;28;20029;-66
2020/12/25 09:16:46;;;;;;;18.95;6.63;;;6.20;99.90;;;;;;5028707;28;20115;-67
2020/12/25 09:19:13;;;;;;;29.20;9.80;;;6.30;99.90;;;;;;5033951;28;20041;-66
2020/12/25 09:21:40;;;;;;;20.85;8.18;;;6.30;99.90;;;;;;5040915;28;20045;-66
2020/12/25 09:24:07;;;;;;;14.18;5.43;;;6.30;99.90;;;;;;5040351;28;20040;-66
2020/12/25 09:26:34;;;;;;;9.02;4.00;;;6.40;99.90;;;;;;5033533;28;20800;-66
2020/12/25 09:29:01;;;;;;;5.55;2.92;;;6.40;99.90;;;;;;5032047;28;20045;-65
2020/12/25 09:31:27;;;;;;;9.25;4.18;;;6.40;99.90;;;;;;5050973;28;20037;-66
2020/12/25 09:33:54;;;;;;;11.50;5.32;;;6.40;99.90;;;;;;5049284;28;20048;-65
2020/12/25 09:36:21;;;;;;;10.25;4.28;;;6.40;99.90;;;;;;5046622;28;20151;-65
2020/12/25 09:38:48;;;;;;;7.18;3.50;;;6.30;99.90;;;;;;5037991;28;20064;-65
2020/12/25 09:41:15;;;;;;;9.13;3.78;;;6.30;99.90;;;;;;5043324;28;20396;-65
2020/12/25 09:43:42;;;;;;;10.55;3.25;;;6.20;99.90;;;;;;5049060;28;20075;-66
2020/12/25 09:46:10;;;;;;;12.13;3.60;;;6.20;99.90;;;;;;5043804;28;20798;-65
2020/12/25 09:48:37;;;;;;;11.35;3.45;;;6.20;99.90;;;;;;5045242;28;20139;-65
2020/12/25 09:51:04;;;;;;;6.78;3.28;;;6.10;99.90;;;;;;5044378;28;20076;-65
2020/12/25 09:53:31;;;;;;;7.45;3.08;;;6.10;99.90;;;;;;5041636;28;20044;-65
2020/12/25 09:55:58;;;;;;;7.22;3.50;;;6.10;99.90;;;;;;5042161;28;20037;-66
2020/12/25 09:58:25;;;;;;;9.30;4.82;;;6.20;99.90;;;;;;5031088;28;20124;-65
2020/12/25 10:00:52;;;;;;;7.53;3.72;;;6.10;99.90;;;;;;5042229;28;20396;-66
2020/12/25 10:03:18;;;;;;;8.00;2.58;;;6.20;99.90;;;;;;5029921;28;20137;-66
2020/12/25 10:05:45;;;;;;;8.95;3.42;;;6.20;99.90;;;;;;5046980;28;20045;-64
2020/12/25 10:08:12;;;;;;;14.05;4.40;;;6.30;99.90;;;;;;5045845;28;20148;-65
2020/12/25 10:10:38;;;;;;;10.82;4.50;;;6.40;99.90;;;;;;5038970;28;20439;-64
2020/12/25 10:13:08;;;;;;;9.38;5.80;;;6.40;99.90;;;;;;5049930;28;20603;-64
2020/12/25 10:15:35;;;;;;;12.25;6.03;;;6.50;99.90;;;;;;5044376;28;20072;-63
2020/12/25 10:18:05;;;;;;;12.48;5.40;;;6.40;99.90;;;;;;5036871;28;20045;-63
2020/12/25 10:20:31;;;;;;;10.68;4.65;;;6.50;99.90;;;;;;5048864;28;20067;-64
2020/12/25 10:22:58;;;;;;;8.32;4.03;;;6.50;99.90;;;;;;5048602;28;20057;-64
2020/12/25 10:25:25;;;;;;;9.23;4.00;;;6.40;99.90;;;;;;5042287;28;20069;-65
2020/12/25 10:27:51;;;;;;;5.57;2.95;;;6.40;99.90;;;;;;5044535;28;20052;-64
2020/12/25 10:30:18;;;;;;;7.03;3.05;;;6.30;99.90;;;;;;5049172;28;20103;-65
2020/12/25 10:32:44;;;;;;;5.38;2.85;;;6.30;99.90;;;;;;5041635;28;20476;-64
2020/12/25 10:35:11;;;;;;;9.73;4.35;;;6.30;99.90;;;;;;5043078;28;20037;-65
2020/12/25 10:37:40;;;;;;;9.30;4.72;;;6.30;99.90;;;;;;5046915;28;20110;-65
2020/12/25 10:40:27;;;;;;;8.15;4.55;;;6.40;99.90;;;;;;5044611;28;20457;-65
2020/12/25 10:42:53;;;;;;;8.20;3.75;;;6.40;99.90;;;;;;5037506;28;20108;-65
2020/12/25 10:45:23;;;;;;;9.80;4.90;;;6.40;99.90;;;;;;5045396;28;20463;-65
2020/12/25 10:47:50;;;;;;;7.60;3.72;;;6.50;99.90;;;;;;5039948;28;20049;-65
2020/12/25 10:50:17;;;;;;;7.18;3.75;;;6.40;99.90;;;;;;5037259;28;20107;-64
2020/12/25 10:52:46;;;;;;;7.20;3.10;;;6.40;99.90;;;;;;5048795;28;20077;-64
2020/12/25 10:55:13;;;;;;;8.63;3.30;;;6.50;99.90;;;;;;5031974;28;20046;-64
2020/12/25 10:57:40;;;;;;;7.88;3.53;;;6.50;99.90;;;;;;5042256;28;20053;-65
2020/12/25 11:00:08;;;;;;;8.55;3.28;;;6.50;99.90;;;;;;5023301;28;20045;-66
2020/12/25 11:02:35;;;;;;;10.18;4.57;;;6.50;99.90;;;;;;5032528;28;20050;-64
2020/12/25 11:05:05;;;;;;;6.65;3.40;;;6.60;99.90;;;;;;5022565;28;20126;-65
2020/12/25 11:07:32;;;;;;;7.07;3.85;;;6.70;99.90;;;;;;5047746;28;20037;-64
2020/12/25 11:10:01;;;;;;;9.43;4.38;;;6.70;99.90;;;;;;5048708;28;20045;-64
2020/12/25 11:12:28;;;;;;;8.88;5.28;;;6.70;99.90;;;;;;5049401;28;20045;-69
2020/12/25 11:14:54;;;;;;;13.23;5.68;;;6.70;99.90;;;;;;5044804;28;20063;-66
2020/12/25 11:17:21;;;;;;;11.00;5.60;;;6.80;99.90;;;;;;5045594;28;20049;-66
2020/12/25 11:19:48;;;;;;;14.27;6.22;;;6.80;99.90;;;;;;5044694;28;20084;-65
2020/12/25 11:22:15;;;;;;;12.10;6.45;;;7.00;99.90;;;;;;5020779;28;20054;-65
2020/12/25 11:24:42;;;;;;;9.70;4.65;;;7.00;99.90;;;;;;5056453;28;20185;-65
2020/12/25 11:27:09;;;;;;;8.85;4.57;;;7.10;99.90;;;;;;5036551;28;20037;-66
2020/12/25 11:29:36;;;;;;;12.80;5.35;;;7.00;99.90;;;;;;5044665;28;20055;-66
2020/12/25 11:32:03;;;;;;;17.25;6.90;;;7.00;99.90;;;;;;5041508;28;20068;-66
2020/12/25 11:34:29;;;;;;;13.48;5.68;;;7.00;99.90;;;;;;5043896;28;20041;-66
2020/12/25 11:36:56;;;;;;;11.82;6.65;;;7.00;99.90;;;;;;5038117;28;20095;-65
2020/12/25 11:39:27;;;;;;;11.02;5.57;;;6.90;99.90;;;;;;5024619;28;20728;-65
2020/12/25 11:41:53;;;;;;;12.75;5.60;;;6.90;99.90;;;;;;5045537;28;20041;-65
2020/12/25 11:44:21;;;;;;;10.63;5.60;;;6.90;99.90;;;;;;5019788;28;20057;-65
2020/12/25 11:46:48;;;;;;;9.93;5.22;;;6.90;99.90;;;;;;5045914;28;20044;-65
2020/12/25 11:49:14;;;;;;;10.45;3.45;;;7.00;99.90;;;;;;5023412;28;20037;-66
2020/12/25 11:51:41;;;;;;;8.70;4.38;;;7.00;99.90;;;;;;5021039;28;20102;-66
2020/12/25 11:54:13;;;;;;;7.82;4.10;;;7.00;99.90;;;;;;5039904;28;20518;-66
2020/12/25 11:56:39;;;;;;;12.60;6.78;;;7.10;99.90;;;;;;5030464;28;20068;-65
2020/12/25 11:59:06;;;;;;;14.68;6.35;;;7.10;99.90;;;;;;5041443;28;20067;-65
2020/12/25 12:01:36;;;;;;;13.15;6.45;;;7.10;99.90;;;;;;5032344;28;20579;-65
2020/12/25 12:04:03;;;;;;;18.38;6.93;;;7.10;99.90;;;;;;5048888;28;20044;-65
2020/12/25 12:06:30;;;;;;;21.67;8.18;;;7.10;99.90;;;;;;5046376;28;20053;-66
2020/12/25 12:08:57;;;;;;;26.75;10.48;;;7.20;99.90;;;;;;5048731;28;20076;-64
2020/12/25 12:11:30;;;;;;;17.50;7.13;;;7.20;99.90;;;;;;5042666;28;20492;-63
2020/12/25 12:13:57;;;;;;;16.23;6.40;;;7.20;99.90;;;;;;5044128;28;20040;-66
2020/12/25 12:16:26;;;;;;;17.55;7.90;;;7.30;99.90;;;;;;5033889;28;20045;-66
2020/12/25 12:18:54;;;;;;;18.95;7.65;;;7.30;99.90;;;;;;5040287;28;20387;-64
2020/12/25 12:21:24;;;;;;;16.50;7.93;;;7.30;99.90;;;;;;5044833;28;20099;-65
2020/12/25 12:23:51;;;;;;;10.85;4.72;;;7.30;99.90;;;;;;5050611;28;20724;-64
2020/12/25 12:26:18;;;;;;;11.95;5.90;;;7.30;99.90;;;;;;5029907;28;20065;-64
2020/12/25 12:28:45;;;;;;;12.52;5.60;;;7.20;99.90;;;;;;5045811;28;20049;-64
2020/12/25 12:31:15;;;;;;;11.68;5.97;;;7.20;99.90;;;;;;5038306;28;20432;-63
2020/12/25 12:33:44;;;;;;;;;;;7.20;99.90;;;;;;5058001;28;20047;-65
2020/12/25 12:36:11;;;;;;;15.40;5.45;;;7.20;99.90;;;;;;5043053;28;19927;-65
2020/12/25 12:38:38;;;;;;;20.58;9.38;;;7.10;99.90;;;;;;5046280;28;20047;-64
2020/12/25 12:41:04;;;;;;;15.52;6.38;;;7.10;99.90;;;;;;5035040;28;20044;-65
2020/12/25 12:43:31;;;;;;;11.15;4.80;;;7.20;99.90;;;;;;5041585;28;20038;-66
2020/12/25 12:45:58;;;;;;;14.45;5.80;;;7.20;99.90;;;;;;5048644;28;20439;-65
2020/12/25 12:48:24;;;;;;;15.90;6.78;;;7.20;99.90;;;;;;5045433;28;20041;-65
2020/12/25 12:50:53;;;;;;;9.63;5.05;;;7.20;99.90;;;;;;5047811;28;20040;-66
2020/12/25 12:53:20;;;;;;;10.07;4.13;;;7.10;99.90;;;;;;5062774;28;20635;-64
2020/12/25 12:55:49;;;;;;;18.17;6.72;;;7.10;99.90;;;;;;5040157;28;20522;-64
2020/12/25 12:58:16;;;;;;;14.18;5.70;;;7.10;99.90;;;;;;5049625;28;20044;-65
2020/12/25 13:00:58;;;;;;;11.90;5.93;;;7.10;99.90;;;;;;5050265;28;20110;-64